sensor_id;sensor_type;location;lat;lon;timestamp;temperature;humidity
7518;DHT22;3800;48.922;9.444;2022-07-15T00:01:15;19.00;92.90
7518;DHT22;3800;48.922;9.444;2022-07-15T00:03:43;18.90;92.90
7518;DHT22;3800;48.922;9.444;2022-07-15T00:06:11;18.80;93.40
7518;DHT22;3800;48.922;9.444;2022-07-15T00:08:39;18.50;93.80
7518;DHT22;3800;48.922;9.444;2022-07-15T00:11:08;18.40;94.00
7518;DHT22;3800;48.922;9.444;2022-07-15T00:13:37;18.20;93.90
7518;DHT22;3800;48.922;9.444;2022-07-15T00:16:05;18.20;93.80
7518;DHT22;3800;48.922;9.444;2022-07-15T00:18:33;18.20;93.90
7518;DHT22;3800;48.922;9.444;2022-07-15T00:21:01;18.10;94.00
7518;DHT22;3800;48.922;9.444;2022-07-15T00:23:30;17.90;94.70
7518;DHT22;3800;48.922;9.444;2022-07-15T00:25:59;17.90;94.50
7518;DHT22;3800;48.922;9.444;2022-07-15T00:28:27;17.80;94.60
7518;DHT22;3800;48.922;9.444;2022-07-15T00:30:55;17.80;94.60
7518;DHT22;3800;48.922;9.444;2022-07-15T00:33:23;17.80;94.50
7518;DHT22;3800;48.922;9.444;2022-07-15T00:35:52;17.80;94.50
7518;DHT22;3800;48.922;9.444;2022-07-15T00:38:20;17.80;94.50
7518;DHT22;3800;48.922;9.444;2022-07-15T00:40:49;17.80;94.50
7518;DHT22;3800;48.922;9.444;2022-07-15T00:43:17;17.80;94.70
7518;DHT22;3800;48.922;9.444;2022-07-15T00:45:45;17.70;94.90
7518;DHT22;3800;48.922;9.444;2022-07-15T00:48:14;17.50;95.00
7518;DHT22;3800;48.922;9.444;2022-07-15T00:50:42;17.50;95.10
7518;DHT22;3800;48.922;9.444;2022-07-15T00:53:20;17.50;95.10
7518;DHT22;3800;48.922;9.444;2022-07-15T00:55:47;17.50;94.80
7518;DHT22;3800;48.922;9.444;2022-07-15T00:58:18;17.50;94.70
7518;DHT22;3800;48.922;9.444;2022-07-15T01:00:45;17.40;94.80
7518;DHT22;3800;48.922;9.444;2022-07-15T01:03:14;17.30;95.20
7518;DHT22;3800;48.922;9.444;2022-07-15T01:05:42;17.30;95.20
7518;DHT22;3800;48.922;9.444;2022-07-15T01:08:10;17.30;95.30
7518;DHT22;3800;48.922;9.444;2022-07-15T01:10:39;17.20;95.90
7518;DHT22;3800;48.922;9.444;2022-07-15T01:13:06;17.10;96.20
7518;DHT22;3800;48.922;9.444;2022-07-15T01:15:35;16.90;96.50
7518;DHT22;3800;48.922;9.444;2022-07-15T01:18:03;16.90;97.00
7518;DHT22;3800;48.922;9.444;2022-07-15T01:20:31;16.90;96.90
7518;DHT22;3800;48.922;9.444;2022-07-15T01:23:00;16.90;97.00
7518;DHT22;3800;48.922;9.444;2022-07-15T01:25:28;16.80;97.50
7518;DHT22;3800;48.922;9.444;2022-07-15T01:27:57;16.80;97.10
7518;DHT22;3800;48.922;9.444;2022-07-15T01:30:25;16.80;97.20
7518;DHT22;3800;48.922;9.444;2022-07-15T01:32:53;16.70;97.40
7518;DHT22;3800;48.922;9.444;2022-07-15T01:35:22;16.70;97.70
7518;DHT22;3800;48.922;9.444;2022-07-15T01:37:50;16.60;97.90
7518;DHT22;3800;48.922;9.444;2022-07-15T01:40:18;16.50;98.00
7518;DHT22;3800;48.922;9.444;2022-07-15T01:42:47;16.40;98.40
7518;DHT22;3800;48.922;9.444;2022-07-15T01:45:15;16.30;98.30
7518;DHT22;3800;48.922;9.444;2022-07-15T01:47:44;16.20;98.50
7518;DHT22;3800;48.922;9.444;2022-07-15T01:50:13;16.00;98.70
7518;DHT22;3800;48.922;9.444;2022-07-15T01:52:41;15.80;99.10
7518;DHT22;3800;48.922;9.444;2022-07-15T01:55:09;15.70;99.40
7518;DHT22;3800;48.922;9.444;2022-07-15T01:57:37;15.70;99.30
7518;DHT22;3800;48.922;9.444;2022-07-15T02:00:06;15.70;99.30
7518;DHT22;3800;48.922;9.444;2022-07-15T02:02:35;15.60;99.50
7518;DHT22;3800;48.922;9.444;2022-07-15T02:05:04;15.50;99.70
7518;DHT22;3800;48.922;9.444;2022-07-15T02:07:33;15.50;99.70
7518;DHT22;3800;48.922;9.444;2022-07-15T02:10:01;15.50;99.90
7518;DHT22;3800;48.922;9.444;2022-07-15T02:12:30;15.50;99.90
7518;DHT22;3800;48.922;9.444;2022-07-15T02:14:58;15.40;99.90
7518;DHT22;3800;48.922;9.444;2022-07-15T02:17:26;15.40;99.90
7518;DHT22;3800;48.922;9.444;2022-07-15T02:19:55;15.40;99.90
7518;DHT22;3800;48.922;9.444;2022-07-15T02:22:23;15.40;99.90
7518;DHT22;3800;48.922;9.444;2022-07-15T02:24:52;15.20;99.90
7518;DHT22;3800;48.922;9.444;2022-07-15T02:27:20;15.20;99.90
7518;DHT22;3800;48.922;9.444;2022-07-15T02:29:49;15.00;99.90
7518;DHT22;3800;48.922;9.444;2022-07-15T02:32:17;15.00;99.90
7518;DHT22;3800;48.922;9.444;2022-07-15T02:34:46;14.90;99.90
7518;DHT22;3800;48.922;9.444;2022-07-15T02:37:14;14.90;99.90
7518;DHT22;3800;48.922;9.444;2022-07-15T02:39:42;14.90;99.90
7518;DHT22;3800;48.922;9.444;2022-07-15T02:42:10;14.90;99.90
7518;DHT22;3800;48.922;9.444;2022-07-15T02:44:39;14.80;99.90
7518;DHT22;3800;48.922;9.444;2022-07-15T02:47:07;14.80;99.90
7518;DHT22;3800;48.922;9.444;2022-07-15T02:49:36;14.70;99.90
7518;DHT22;3800;48.922;9.444;2022-07-15T02:52:04;14.70;99.90
7518;DHT22;3800;48.922;9.444;2022-07-15T02:54:32;14.60;99.90
7518;DHT22;3800;48.922;9.444;2022-07-15T02:57:01;14.70;99.90
7518;DHT22;3800;48.922;9.444;2022-07-15T02:59:29;14.70;99.90
7518;DHT22;3800;48.922;9.444;2022-07-15T03:01:57;14.70;99.90
7518;DHT22;3800;48.922;9.444;2022-07-15T03:04:25;14.70;99.90
7518;DHT22;3800;48.922;9.444;2022-07-15T03:06:54;14.70;99.90
7518;DHT22;3800;48.922;9.444;2022-07-15T03:09:22;14.70;99.90
7518;DHT22;3800;48.922;9.444;2022-07-15T03:11:50;14.70;99.90
7518;DHT22;3800;48.922;9.444;2022-07-15T03:14:19;14.60;99.90
7518;DHT22;3800;48.922;9.444;2022-07-15T03:16:48;14.50;99.90
7518;DHT22;3800;48.922;9.444;2022-07-15T03:19:16;14.50;99.90
7518;DHT22;3800;48.922;9.444;2022-07-15T03:21:44;14.40;99.90
7518;DHT22;3800;48.922;9.444;2022-07-15T03:24:12;14.40;99.90
7518;DHT22;3800;48.922;9.444;2022-07-15T03:26:41;14.30;99.90
7518;DHT22;3800;48.922;9.444;2022-07-15T03:29:09;14.30;99.90
7518;DHT22;3800;48.922;9.444;2022-07-15T03:31:37;14.30;99.90
7518;DHT22;3800;48.922;9.444;2022-07-15T03:34:05;14.20;99.90
7518;DHT22;3800;48.922;9.444;2022-07-15T03:36:34;14.20;99.90
7518;DHT22;3800;48.922;9.444;2022-07-15T03:39:03;14.00;99.90
7518;DHT22;3800;48.922;9.444;2022-07-15T03:41:31;14.00;99.90
7518;DHT22;3800;48.922;9.444;2022-07-15T03:44:00;14.10;99.90
7518;DHT22;3800;48.922;9.444;2022-07-15T03:46:28;14.00;99.90
7518;DHT22;3800;48.922;9.444;2022-07-15T03:48:56;14.00;99.90
7518;DHT22;3800;48.922;9.444;2022-07-15T03:51:24;13.90;99.90
7518;DHT22;3800;48.922;9.444;2022-07-15T03:53:52;13.80;99.90
7518;DHT22;3800;48.922;9.444;2022-07-15T03:56:21;13.70;99.90
7518;DHT22;3800;48.922;9.444;2022-07-15T03:58:49;13.60;99.90
7518;DHT22;3800;48.922;9.444;2022-07-15T04:01:17;13.70;99.90
7518;DHT22;3800;48.922;9.444;2022-07-15T04:03:46;13.70;99.90
7518;DHT22;3800;48.922;9.444;2022-07-15T04:06:14;13.70;99.90
7518;DHT22;3800;48.922;9.444;2022-07-15T04:08:42;13.80;99.90
7518;DHT22;3800;48.922;9.444;2022-07-15T04:11:10;13.90;99.90
7518;DHT22;3800;48.922;9.444;2022-07-15T04:13:39;14.00;99.90
7518;DHT22;3800;48.922;9.444;2022-07-15T04:16:08;13.90;99.90
7518;DHT22;3800;48.922;9.444;2022-07-15T04:18:36;14.00;99.90
7518;DHT22;3800;48.922;9.444;2022-07-15T04:21:04;14.00;99.90
7518;DHT22;3800;48.922;9.444;2022-07-15T04:23:32;14.00;99.90
7518;DHT22;3800;48.922;9.444;2022-07-15T04:26:02;13.90;99.90
7518;DHT22;3800;48.922;9.444;2022-07-15T04:28:30;13.90;99.90
7518;DHT22;3800;48.922;9.444;2022-07-15T04:30:58;13.90;99.90
7518;DHT22;3800;48.922;9.444;2022-07-15T04:33:26;13.90;99.90
7518;DHT22;3800;48.922;9.444;2022-07-15T04:35:54;13.90;99.90
7518;DHT22;3800;48.922;9.444;2022-07-15T04:38:23;13.90;99.90
7518;DHT22;3800;48.922;9.444;2022-07-15T04:40:51;13.90;99.90
7518;DHT22;3800;48.922;9.444;2022-07-15T04:43:19;14.00;99.90
7518;DHT22;3800;48.922;9.444;2022-07-15T04:45:47;14.10;99.90
7518;DHT22;3800;48.922;9.444;2022-07-15T04:48:16;14.10;99.90
7518;DHT22;3800;48.922;9.444;2022-07-15T04:50:49;14.20;99.90
7518;DHT22;3800;48.922;9.444;2022-07-15T04:53:20;14.20;99.90
7518;DHT22;3800;48.922;9.444;2022-07-15T04:55:49;14.30;99.90
7518;DHT22;3800;48.922;9.444;2022-07-15T04:58:17;14.30;99.90
7518;DHT22;3800;48.922;9.444;2022-07-15T05:00:46;14.40;99.90
7518;DHT22;3800;48.922;9.444;2022-07-15T05:03:14;14.40;99.90
7518;DHT22;3800;48.922;9.444;2022-07-15T05:05:42;14.50;99.90
7518;DHT22;3800;48.922;9.444;2022-07-15T05:08:11;14.50;99.90
7518;DHT22;3800;48.922;9.444;2022-07-15T05:10:39;14.60;99.90
7518;DHT22;3800;48.922;9.444;2022-07-15T05:13:07;14.60;99.90
7518;DHT22;3800;48.922;9.444;2022-07-15T05:15:36;14.70;99.90
7518;DHT22;3800;48.922;9.444;2022-07-15T05:18:05;14.70;99.90
7518;DHT22;3800;48.922;9.444;2022-07-15T05:20:33;14.70;99.90
7518;DHT22;3800;48.922;9.444;2022-07-15T05:23:01;14.80;99.90
7518;DHT22;3800;48.922;9.444;2022-07-15T05:25:29;14.90;99.90
7518;DHT22;3800;48.922;9.444;2022-07-15T05:27:58;14.90;99.90
7518;DHT22;3800;48.922;9.444;2022-07-15T05:30:26;15.00;99.90
7518;DHT22;3800;48.922;9.444;2022-07-15T05:32:54;15.00;99.90
7518;DHT22;3800;48.922;9.444;2022-07-15T05:35:22;15.10;99.90
7518;DHT22;3800;48.922;9.444;2022-07-15T05:37:51;15.20;99.90
7518;DHT22;3800;48.922;9.444;2022-07-15T05:40:20;15.30;99.90
7518;DHT22;3800;48.922;9.444;2022-07-15T05:42:48;15.30;99.90
7518;DHT22;3800;48.922;9.444;2022-07-15T05:45:16;15.40;99.90
7518;DHT22;3800;48.922;9.444;2022-07-15T05:47:47;15.50;99.90
7518;DHT22;3800;48.922;9.444;2022-07-15T05:50:16;15.70;99.90
7518;DHT22;3800;48.922;9.444;2022-07-15T05:52:44;15.60;99.90
7518;DHT22;3800;48.922;9.444;2022-07-15T05:55:12;15.70;99.90
7518;DHT22;3800;48.922;9.444;2022-07-15T05:57:41;15.80;99.90
7518;DHT22;3800;48.922;9.444;2022-07-15T06:00:09;15.90;99.90
7518;DHT22;3800;48.922;9.444;2022-07-15T06:02:38;16.00;99.90
7518;DHT22;3800;48.922;9.444;2022-07-15T06:05:07;16.10;99.90
7518;DHT22;3800;48.922;9.444;2022-07-15T06:07:35;16.30;99.90
7518;DHT22;3800;48.922;9.444;2022-07-15T06:10:04;16.40;99.90
7518;DHT22;3800;48.922;9.444;2022-07-15T06:12:33;16.50;99.90
7518;DHT22;3800;48.922;9.444;2022-07-15T06:15:02;16.70;99.90
7518;DHT22;3800;48.922;9.444;2022-07-15T06:17:30;16.70;99.90
7518;DHT22;3800;48.922;9.444;2022-07-15T06:19:58;16.80;99.90
7518;DHT22;3800;48.922;9.444;2022-07-15T06:22:27;17.00;99.90
7518;DHT22;3800;48.922;9.444;2022-07-15T06:24:55;17.10;99.90
7518;DHT22;3800;48.922;9.444;2022-07-15T06:27:24;17.40;99.90
7518;DHT22;3800;48.922;9.444;2022-07-15T06:29:52;17.40;99.90
7518;DHT22;3800;48.922;9.444;2022-07-15T06:32:22;17.60;99.90
7518;DHT22;3800;48.922;9.444;2022-07-15T06:34:50;17.60;99.90
7518;DHT22;3800;48.922;9.444;2022-07-15T06:37:19;17.70;99.90
7518;DHT22;3800;48.922;9.444;2022-07-15T06:39:47;17.90;99.90
7518;DHT22;3800;48.922;9.444;2022-07-15T06:42:15;18.00;99.90
7518;DHT22;3800;48.922;9.444;2022-07-15T06:44:43;18.10;99.90
7518;DHT22;3800;48.922;9.444;2022-07-15T06:47:12;18.40;99.90
7518;DHT22;3800;48.922;9.444;2022-07-15T06:49:41;18.40;99.90
7518;DHT22;3800;48.922;9.444;2022-07-15T06:52:10;18.60;99.90
7518;DHT22;3800;48.922;9.444;2022-07-15T06:54:38;18.60;99.90
7518;DHT22;3800;48.922;9.444;2022-07-15T06:57:07;19.00;99.90
7518;DHT22;3800;48.922;9.444;2022-07-15T06:59:35;18.90;99.90
7518;DHT22;3800;48.922;9.444;2022-07-15T07:02:04;19.10;99.80
7518;DHT22;3800;48.922;9.444;2022-07-15T07:04:32;19.20;99.80
7518;DHT22;3800;48.922;9.444;2022-07-15T07:07:00;19.40;99.80
7518;DHT22;3800;48.922;9.444;2022-07-15T07:09:29;19.60;98.40
7518;DHT22;3800;48.922;9.444;2022-07-15T07:11:57;19.60;98.40
7518;DHT22;3800;48.922;9.444;2022-07-15T07:14:26;19.70;98.40
7518;DHT22;3800;48.922;9.444;2022-07-15T07:16:54;19.80;99.20
7518;DHT22;3800;48.922;9.444;2022-07-15T07:19:22;19.90;98.90
7518;DHT22;3800;48.922;9.444;2022-07-15T07:21:51;20.10;98.30
7518;DHT22;3800;48.922;9.444;2022-07-15T07:24:19;20.00;98.30
7518;DHT22;3800;48.922;9.444;2022-07-15T07:26:48;20.20;98.50
7518;DHT22;3800;48.922;9.444;2022-07-15T07:29:16;20.30;98.80
7518;DHT22;3800;48.922;9.444;2022-07-15T07:31:44;20.40;97.40
7518;DHT22;3800;48.922;9.444;2022-07-15T07:34:12;20.50;96.40
7518;DHT22;3800;48.922;9.444;2022-07-15T07:36:41;20.70;97.70
7518;DHT22;3800;48.922;9.444;2022-07-15T07:39:10;20.70;97.60
7518;DHT22;3800;48.922;9.444;2022-07-15T07:41:38;20.80;96.60
7518;DHT22;3800;48.922;9.444;2022-07-15T07:44:06;21.00;98.10
7518;DHT22;3800;48.922;9.444;2022-07-15T07:46:34;21.10;98.10
7518;DHT22;3800;48.922;9.444;2022-07-15T07:49:03;21.20;97.40
7518;DHT22;3800;48.922;9.444;2022-07-15T07:51:31;21.30;95.90
7518;DHT22;3800;48.922;9.444;2022-07-15T07:53:59;21.20;96.10
7518;DHT22;3800;48.922;9.444;2022-07-15T07:56:27;21.30;96.30
7518;DHT22;3800;48.922;9.444;2022-07-15T07:58:56;21.50;96.50
7518;DHT22;3800;48.922;9.444;2022-07-15T08:01:25;21.50;96.50
7518;DHT22;3800;48.922;9.444;2022-07-15T08:03:54;21.60;95.50
7518;DHT22;3800;48.922;9.444;2022-07-15T08:06:22;21.60;95.50
7518;DHT22;3800;48.922;9.444;2022-07-15T08:08:51;21.70;95.50
7518;DHT22;3800;48.922;9.444;2022-07-15T08:11:19;21.70;95.50
7518;DHT22;3800;48.922;9.444;2022-07-15T08:13:48;21.80;94.50
7518;DHT22;3800;48.922;9.444;2022-07-15T08:16:16;21.80;94.50
7518;DHT22;3800;48.922;9.444;2022-07-15T08:18:45;22.00;94.90
7518;DHT22;3800;48.922;9.444;2022-07-15T08:21:14;21.90;94.80
7518;DHT22;3800;48.922;9.444;2022-07-15T08:23:42;22.10;95.90
7518;DHT22;3800;48.922;9.444;2022-07-15T08:26:10;22.30;95.20
7518;DHT22;3800;48.922;9.444;2022-07-15T08:28:39;22.30;94.00
7518;DHT22;3800;48.922;9.444;2022-07-15T08:31:07;22.40;94.20
7518;DHT22;3800;48.922;9.444;2022-07-15T08:33:35;22.50;93.60
7518;DHT22;3800;48.922;9.444;2022-07-15T08:36:03;22.50;93.50
7518;DHT22;3800;48.922;9.444;2022-07-15T08:38:32;22.60;93.30
7518;DHT22;3800;48.922;9.444;2022-07-15T08:41:01;22.70;93.40
7518;DHT22;3800;48.922;9.444;2022-07-15T08:43:29;22.70;93.40
7518;DHT22;3800;48.922;9.444;2022-07-15T08:45:57;22.80;93.40
7518;DHT22;3800;48.922;9.444;2022-07-15T08:48:27;22.90;92.60
7518;DHT22;3800;48.922;9.444;2022-07-15T08:50:55;23.00;93.10
7518;DHT22;3800;48.922;9.444;2022-07-15T08:53:23;23.10;93.00
7518;DHT22;3800;48.922;9.444;2022-07-15T08:55:51;23.10;92.00
7518;DHT22;3800;48.922;9.444;2022-07-15T08:58:19;23.00;92.70
7518;DHT22;3800;48.922;9.444;2022-07-15T09:00:48;23.00;91.80
7518;DHT22;3800;48.922;9.444;2022-07-15T09:03:16;22.90;91.80
7518;DHT22;3800;48.922;9.444;2022-07-15T09:05:45;23.00;91.80
7518;DHT22;3800;48.922;9.444;2022-07-15T09:08:14;23.00;92.30
7518;DHT22;3800;48.922;9.444;2022-07-15T09:11:13;23.10;92.50
7518;DHT22;3800;48.922;9.444;2022-07-15T09:13:29;23.10;91.90
7518;DHT22;3800;48.922;9.444;2022-07-15T09:16:05;23.10;92.50
7518;DHT22;3800;48.922;9.444;2022-07-15T09:18:34;23.20;92.30
7518;DHT22;3800;48.922;9.444;2022-07-15T09:21:01;23.20;92.20
7518;DHT22;3800;48.922;9.444;2022-07-15T09:23:30;23.30;91.20
7518;DHT22;3800;48.922;9.444;2022-07-15T09:26:01;23.40;92.00
7518;DHT22;3800;48.922;9.444;2022-07-15T09:28:42;23.60;91.30
7518;DHT22;3800;48.922;9.444;2022-07-15T09:31:10;23.60;91.30
7518;DHT22;3800;48.922;9.444;2022-07-15T09:33:44;24.00;91.50
7518;DHT22;3800;48.922;9.444;2022-07-15T09:36:18;24.00;91.40
7518;DHT22;3800;48.922;9.444;2022-07-15T09:38:48;24.10;91.40
7518;DHT22;3800;48.922;9.444;2022-07-15T09:41:26;24.30;91.00
7518;DHT22;3800;48.922;9.444;2022-07-15T09:43:57;24.30;89.80
7518;DHT22;3800;48.922;9.444;2022-07-15T09:46:28;24.30;90.80
7518;DHT22;3800;48.922;9.444;2022-07-15T09:48:57;24.40;91.00
7518;DHT22;3800;48.922;9.444;2022-07-15T09:51:26;24.40;90.30
7518;DHT22;3800;48.922;9.444;2022-07-15T09:53:54;24.40;90.30
7518;DHT22;3800;48.922;9.444;2022-07-15T09:56:23;24.30;89.60
7518;DHT22;3800;48.922;9.444;2022-07-15T09:58:51;24.20;90.10
7518;DHT22;3800;48.922;9.444;2022-07-15T10:01:19;24.20;90.70
7518;DHT22;3800;48.922;9.444;2022-07-15T10:03:49;24.10;88.20
7518;DHT22;3800;48.922;9.444;2022-07-15T10:06:19;24.10;88.50
7518;DHT22;3800;48.922;9.444;2022-07-15T10:08:47;24.00;90.00
7518;DHT22;3800;48.922;9.444;2022-07-15T10:11:15;23.80;89.10
7518;DHT22;3800;48.922;9.444;2022-07-15T10:13:52;23.70;89.80
7518;DHT22;3800;48.922;9.444;2022-07-15T10:16:26;23.80;90.60
7518;DHT22;3800;48.922;9.444;2022-07-15T10:19:02;23.90;90.00
7518;DHT22;3800;48.922;9.444;2022-07-15T10:21:40;23.90;90.00
7518;DHT22;3800;48.922;9.444;2022-07-15T10:24:56;23.90;90.60
7518;DHT22;3800;48.922;9.444;2022-07-15T10:27:47;24.00;92.20
7518;DHT22;3800;48.922;9.444;2022-07-15T10:30:20;24.00;90.90
7518;DHT22;3800;48.922;9.444;2022-07-15T10:35:47;23.90;90.50
7518;DHT22;3800;48.922;9.444;2022-07-15T10:38:22;23.90;89.90
7518;DHT22;3800;48.922;9.444;2022-07-15T10:41:09;23.80;90.20
7518;DHT22;3800;48.922;9.444;2022-07-15T10:43:39;24.00;90.40
7518;DHT22;3800;48.922;9.444;2022-07-15T10:46:24;24.10;90.30
7518;DHT22;3800;48.922;9.444;2022-07-15T10:49:28;24.20;90.40
7518;DHT22;3800;48.922;9.444;2022-07-15T10:52:03;24.20;90.40
7518;DHT22;3800;48.922;9.444;2022-07-15T10:54:42;24.20;89.80
7518;DHT22;3800;48.922;9.444;2022-07-15T10:57:10;24.40;91.00
7518;DHT22;3800;48.922;9.444;2022-07-15T10:59:39;24.30;90.90
7518;DHT22;3800;48.922;9.444;2022-07-15T11:02:15;24.60;89.20
7518;DHT22;3800;48.922;9.444;2022-07-15T11:04:42;24.50;89.10
7518;DHT22;3800;48.922;9.444;2022-07-15T11:07:25;24.40;90.30
7518;DHT22;3800;48.922;9.444;2022-07-15T11:12:56;24.40;91.10
7518;DHT22;3800;48.922;9.444;2022-07-15T11:15:24;24.50;90.10
7518;DHT22;3800;48.922;9.444;2022-07-15T11:17:53;24.50;90.10
7518;DHT22;3800;48.922;9.444;2022-07-15T11:20:22;24.40;90.50
7518;DHT22;3800;48.922;9.444;2022-07-15T11:22:51;24.20;90.20
7518;DHT22;3800;48.922;9.444;2022-07-15T11:25:20;24.30;90.70
7518;DHT22;3800;48.922;9.444;2022-07-15T11:28:04;24.20;90.70
7518;DHT22;3800;48.922;9.444;2022-07-15T11:30:40;24.30;90.20
7518;DHT22;3800;48.922;9.444;2022-07-15T11:33:13;24.30;90.20
7518;DHT22;3800;48.922;9.444;2022-07-15T11:35:53;24.30;90.70
7518;DHT22;3800;48.922;9.444;2022-07-15T11:38:23;24.20;89.70
7518;DHT22;3800;48.922;9.444;2022-07-15T11:40:52;24.20;89.70
7518;DHT22;3800;48.922;9.444;2022-07-15T11:43:24;24.10;90.20
7518;DHT22;3800;48.922;9.444;2022-07-15T11:45:58;24.10;90.50
7518;DHT22;3800;48.922;9.444;2022-07-15T11:48:27;24.10;91.40
7518;DHT22;3800;48.922;9.444;2022-07-15T11:50:55;24.20;90.00
7518;DHT22;3800;48.922;9.444;2022-07-15T11:53:23;24.30;90.90
7518;DHT22;3800;48.922;9.444;2022-07-15T11:55:55;24.40;90.70
7518;DHT22;3800;48.922;9.444;2022-07-15T12:01:14;24.60;90.20
7518;DHT22;3800;48.922;9.444;2022-07-15T12:03:45;24.70;90.20
7518;DHT22;3800;48.922;9.444;2022-07-15T12:06:15;24.60;89.60
7518;DHT22;3800;48.922;9.444;2022-07-15T12:08:47;24.50;89.70
7518;DHT22;3800;48.922;9.444;2022-07-15T12:13:50;24.70;90.40
7518;DHT22;3800;48.922;9.444;2022-07-15T12:16:18;24.80;90.00
7518;DHT22;3800;48.922;9.444;2022-07-15T12:18:46;24.80;89.80
7518;DHT22;3800;48.922;9.444;2022-07-15T12:21:14;24.90;90.10
7518;DHT22;3800;48.922;9.444;2022-07-15T12:23:56;24.80;88.70
7518;DHT22;3800;48.922;9.444;2022-07-15T12:26:10;24.70;88.70
7518;DHT22;3800;48.922;9.444;2022-07-15T12:28:39;24.60;88.70
7518;DHT22;3800;48.922;9.444;2022-07-15T12:31:08;24.80;89.10
7518;DHT22;3800;48.922;9.444;2022-07-15T12:33:36;24.80;89.00
7518;DHT22;3800;48.922;9.444;2022-07-15T12:36:14;24.90;89.90
7518;DHT22;3800;48.922;9.444;2022-07-15T12:38:41;25.00;88.70
7518;DHT22;3800;48.922;9.444;2022-07-15T12:41:22;25.10;87.90
7518;DHT22;3800;48.922;9.444;2022-07-15T12:43:51;25.10;88.30
7518;DHT22;3800;48.922;9.444;2022-07-15T12:46:21;25.10;87.40
7518;DHT22;3800;48.922;9.444;2022-07-15T12:49:05;25.00;87.60
7518;DHT22;3800;48.922;9.444;2022-07-15T12:51:33;25.00;87.50
7518;DHT22;3800;48.922;9.444;2022-07-15T12:54:03;25.30;89.20
7518;DHT22;3800;48.922;9.444;2022-07-15T12:57:03;25.30;86.80
7518;DHT22;3800;48.922;9.444;2022-07-15T12:59:18;25.10;87.40
7518;DHT22;3800;48.922;9.444;2022-07-15T13:04:28;25.20;87.60
7518;DHT22;3800;48.922;9.444;2022-07-15T13:06:56;25.30;87.60
7518;DHT22;3800;48.922;9.444;2022-07-15T13:09:25;25.40;87.50
7518;DHT22;3800;48.922;9.444;2022-07-15T13:11:57;25.40;88.00
7518;DHT22;3800;48.922;9.444;2022-07-15T13:14:25;25.30;88.20
7518;DHT22;3800;48.922;9.444;2022-07-15T13:16:54;24.90;87.80
7518;DHT22;3800;48.922;9.444;2022-07-15T13:19:22;24.90;87.70
7518;DHT22;3800;48.922;9.444;2022-07-15T13:21:50;24.80;88.00
7518;DHT22;3800;48.922;9.444;2022-07-15T13:24:19;24.70;87.40
7518;DHT22;3800;48.922;9.444;2022-07-15T13:26:47;24.60;88.40
7518;DHT22;3800;48.922;9.444;2022-07-15T13:29:15;24.50;88.30
7518;DHT22;3800;48.922;9.444;2022-07-15T13:31:44;24.30;88.00
7518;DHT22;3800;48.922;9.444;2022-07-15T13:34:12;24.30;87.90
7518;DHT22;3800;48.922;9.444;2022-07-15T13:36:41;24.30;86.20
7518;DHT22;3800;48.922;9.444;2022-07-15T13:39:09;24.20;87.80
7518;DHT22;3800;48.922;9.444;2022-07-15T13:41:37;24.20;89.00
7518;DHT22;3800;48.922;9.444;2022-07-15T13:44:05;24.20;88.20
7518;DHT22;3800;48.922;9.444;2022-07-15T13:46:34;24.10;88.40
7518;DHT22;3800;48.922;9.444;2022-07-15T13:49:02;24.00;88.60
7518;DHT22;3800;48.922;9.444;2022-07-15T13:51:30;24.00;89.00
7518;DHT22;3800;48.922;9.444;2022-07-15T13:53:58;24.00;88.80
7518;DHT22;3800;48.922;9.444;2022-07-15T13:56:27;23.90;87.80
7518;DHT22;3800;48.922;9.444;2022-07-15T13:58:55;23.80;87.50
7518;DHT22;3800;48.922;9.444;2022-07-15T14:01:24;23.80;89.80
7518;DHT22;3800;48.922;9.444;2022-07-15T14:03:52;23.80;88.90
7518;DHT22;3800;48.922;9.444;2022-07-15T14:06:20;23.70;89.50
7518;DHT22;3800;48.922;9.444;2022-07-15T14:08:49;23.70;88.90
7518;DHT22;3800;48.922;9.444;2022-07-15T14:11:17;23.70;88.90
7518;DHT22;3800;48.922;9.444;2022-07-15T14:13:46;23.60;88.20
7518;DHT22;3800;48.922;9.444;2022-07-15T14:16:14;23.60;88.20
7518;DHT22;3800;48.922;9.444;2022-07-15T14:18:43;23.60;89.70
7518;DHT22;3800;48.922;9.444;2022-07-15T14:21:14;23.60;89.60
7518;DHT22;3800;48.922;9.444;2022-07-15T14:23:43;23.70;89.90
7518;DHT22;3800;48.922;9.444;2022-07-15T14:26:11;23.90;88.30
7518;DHT22;3800;48.922;9.444;2022-07-15T14:28:39;24.10;89.20
7518;DHT22;3800;48.922;9.444;2022-07-15T14:31:07;24.30;90.40
7518;DHT22;3800;48.922;9.444;2022-07-15T14:33:35;24.50;89.30
7518;DHT22;3800;48.922;9.444;2022-07-15T14:36:04;25.00;87.40
7518;DHT22;3800;48.922;9.444;2022-07-15T14:38:32;25.00;87.40
7518;DHT22;3800;48.922;9.444;2022-07-15T14:41:01;25.10;87.40
7518;DHT22;3800;48.922;9.444;2022-07-15T14:43:29;25.30;87.80
7518;DHT22;3800;48.922;9.444;2022-07-15T14:45:57;25.30;86.40
7518;DHT22;3800;48.922;9.444;2022-07-15T14:48:26;25.50;86.60
7518;DHT22;3800;48.922;9.444;2022-07-15T14:50:55;25.40;86.50
7518;DHT22;3800;48.922;9.444;2022-07-15T14:53:23;25.60;86.50
7518;DHT22;3800;48.922;9.444;2022-07-15T14:55:52;25.50;86.40
7518;DHT22;3800;48.922;9.444;2022-07-15T14:58:20;25.60;87.60
7518;DHT22;3800;48.922;9.444;2022-07-15T15:00:48;25.70;87.40
7518;DHT22;3800;48.922;9.444;2022-07-15T15:03:17;25.70;86.60
7518;DHT22;3800;48.922;9.444;2022-07-15T15:05:45;25.60;87.30
7518;DHT22;3800;48.922;9.444;2022-07-15T15:08:14;25.60;86.50
7518;DHT22;3800;48.922;9.444;2022-07-15T15:10:42;25.60;86.50
7518;DHT22;3800;48.922;9.444;2022-07-15T15:13:10;25.40;85.70
7518;DHT22;3800;48.922;9.444;2022-07-15T15:15:39;25.30;85.80
7518;DHT22;3800;48.922;9.444;2022-07-15T15:18:07;25.40;87.60
7518;DHT22;3800;48.922;9.444;2022-07-15T15:20:35;25.30;86.10
7518;DHT22;3800;48.922;9.444;2022-07-15T15:23:03;25.30;86.70
7518;DHT22;3800;48.922;9.444;2022-07-15T15:25:32;25.30;86.80
7518;DHT22;3800;48.922;9.444;2022-07-15T15:28:05;25.30;85.70
7518;DHT22;3800;48.922;9.444;2022-07-15T15:30:34;25.20;86.30
7518;DHT22;3800;48.922;9.444;2022-07-15T15:33:02;25.20;86.90
7518;DHT22;3800;48.922;9.444;2022-07-15T15:35:30;25.10;86.20
7518;DHT22;3800;48.922;9.444;2022-07-15T15:37:58;25.00;87.30
7518;DHT22;3800;48.922;9.444;2022-07-15T15:40:27;25.00;87.10
7518;DHT22;3800;48.922;9.444;2022-07-15T15:42:55;25.00;86.80
7518;DHT22;3800;48.922;9.444;2022-07-15T15:45:23;24.90;86.10
7518;DHT22;3800;48.922;9.444;2022-07-15T15:47:51;24.90;87.40
7518;DHT22;3800;48.922;9.444;2022-07-15T15:50:20;25.10;89.00
7518;DHT22;3800;48.922;9.444;2022-07-15T15:52:49;25.10;89.00
7518;DHT22;3800;48.922;9.444;2022-07-15T15:55:17;25.10;87.50
7518;DHT22;3800;48.922;9.444;2022-07-15T15:57:45;25.10;87.20
7518;DHT22;3800;48.922;9.444;2022-07-15T16:00:14;25.10;87.50
7518;DHT22;3800;48.922;9.444;2022-07-15T16:02:42;25.10;86.00
7518;DHT22;3800;48.922;9.444;2022-07-15T16:05:10;24.90;85.60
7518;DHT22;3800;48.922;9.444;2022-07-15T16:07:39;24.90;86.50
7518;DHT22;3800;48.922;9.444;2022-07-15T16:10:08;24.80;85.70
7518;DHT22;3800;48.922;9.444;2022-07-15T16:12:36;24.80;85.80
7518;DHT22;3800;48.922;9.444;2022-07-15T16:15:05;24.80;86.20
7518;DHT22;3800;48.922;9.444;2022-07-15T16:17:34;24.80;86.30
7518;DHT22;3800;48.922;9.444;2022-07-15T16:20:04;24.80;85.40
7518;DHT22;3800;48.922;9.444;2022-07-15T16:22:32;24.70;85.90
7518;DHT22;3800;48.922;9.444;2022-07-15T16:25:06;24.70;85.90
7518;DHT22;3800;48.922;9.444;2022-07-15T16:27:35;24.70;85.50
7518;DHT22;3800;48.922;9.444;2022-07-15T16:30:03;24.60;84.60